createdAt,value
2023-05-04T00:00:47.824Z,19.19
2023-05-04T00:01:48.571Z,18.92
2023-05-04T00:02:48.082Z,19.24
2023-05-04T00:03:48.313Z,18.89
2023-05-04T00:04:48.129Z,19.19
2023-05-04T00:05:48.096Z,18.63
2023-05-04T00:06:48.163Z,19.01
2023-05-04T00:07:48.594Z,18.72
2023-05-04T00:08:48.287Z,19.11
2023-05-04T00:09:48.323Z,18.55
2023-05-04T00:10:48.380Z,18.88
2023-05-04T00:11:48.431Z,18.53
2023-05-04T00:12:48.526Z,18.76
2023-05-04T00:13:48.518Z,18.53
2023-05-04T00:14:49.074Z,18.44
2023-05-04T00:15:48.647Z,18.08
2023-05-04T00:16:48.845Z,18.40
2023-05-04T00:17:48.797Z,18.38
2023-05-04T00:18:48.803Z,18.00
2023-05-04T00:19:48.861Z,17.97
2023-05-04T00:20:48.892Z,18.05
2023-05-04T00:21:48.960Z,17.91
2023-05-04T00:22:49.004Z,18.14
2023-05-04T00:23:49.117Z,18.05
2023-05-04T00:24:49.106Z,18.00
2023-05-04T00:25:49.135Z,17.90
2023-05-04T00:26:49.175Z,17.86
2023-05-04T00:27:49.226Z,17.62
2023-05-04T00:28:49.285Z,17.38
2023-05-04T00:29:49.297Z,17.37
2023-05-04T00:30:49.356Z,17.47
2023-05-04T00:31:49.402Z,17.41
2023-05-04T00:32:49.466Z,17.30
2023-05-04T00:33:49.494Z,17.14
2023-05-04T00:34:50.084Z,17.69
2023-05-04T00:35:49.611Z,17.13
2023-05-04T00:36:49.619Z,17.46
2023-05-04T00:37:49.673Z,17.44
2023-05-04T00:38:49.714Z,17.12
2023-05-04T00:39:49.753Z,17.32
2023-05-04T00:40:49.802Z,17.21
2023-05-04T00:41:49.862Z,16.82
2023-05-04T00:42:49.919Z,17.28
2023-05-04T00:43:49.951Z,16.71
2023-05-04T00:44:50.002Z,16.62
2023-05-04T00:45:50.069Z,16.84
2023-05-04T00:46:50.185Z,16.83
2023-05-04T00:47:50.253Z,16.71
2023-05-04T00:48:50.197Z,16.77
2023-05-04T00:49:50.393Z,16.68
2023-05-04T00:50:50.299Z,16.86
2023-05-04T00:51:50.374Z,16.65
2023-05-04T00:52:50.401Z,16.92
2023-05-04T00:53:50.450Z,16.32
2023-05-04T00:54:50.494Z,16.67
2023-05-04T00:55:50.560Z,16.44
2023-05-04T00:56:50.631Z,16.69
2023-05-04T00:57:50.675Z,16.40
2023-05-04T00:58:50.717Z,16.52
2023-05-04T00:59:50.769Z,15.92
2023-05-04T01:00:50.871Z,16.21
2023-05-04T01:01:50.894Z,16.04
2023-05-04T01:02:51.002Z,15.86
2023-05-04T01:03:51.012Z,16.15
2023-05-04T01:04:51.061Z,15.75
2023-05-04T01:05:51.190Z,16.20
2023-05-04T01:06:51.152Z,15.98
2023-05-04T01:07:51.221Z,15.89
2023-05-04T01:08:51.267Z,15.71
2023-05-04T01:09:51.323Z,15.63
2023-05-04T01:10:51.380Z,15.74
2023-05-04T01:11:51.432Z,15.73
2023-05-04T01:12:51.570Z,15.78
2023-05-04T01:13:51.537Z,15.26
2023-05-04T01:14:51.599Z,15.43
2023-05-04T01:15:51.644Z,15.43
2023-05-04T01:16:51.720Z,15.52
2023-05-04T01:17:51.777Z,15.15
2023-05-04T01:18:51.799Z,15.45
2023-05-04T01:19:51.862Z,15.39
2023-05-04T01:20:51.917Z,15.33
2023-05-04T01:21:51.954Z,15.27
2023-05-04T01:22:51.993Z,15.30
2023-05-04T01:23:52.044Z,15.06
2023-05-04T01:24:52.094Z,15.02
2023-05-04T01:25:52.163Z,15.13
2023-05-04T01:26:52.185Z,14.94
2023-05-04T01:27:52.233Z,14.97
2023-05-04T01:28:52.280Z,14.85
2023-05-04T01:29:52.343Z,14.90
2023-05-04T01:30:52.531Z,14.26
2023-05-04T01:31:52.455Z,14.69
2023-05-04T01:32:52.502Z,14.57
2023-05-04T01:33:52.535Z,14.62
2023-05-04T01:34:52.589Z,14.45
2023-05-04T01:35:52.654Z,14.58
2023-05-04T01:36:52.686Z,14.48
2023-05-04T01:37:52.751Z,14.19
2023-05-04T01:38:52.858Z,14.63
2023-05-04T01:39:52.842Z,14.36
2023-05-04T01:40:52.893Z,14.04
2023-05-04T01:41:52.956Z,14.24
2023-05-04T01:42:53.011Z,14.24
2023-05-04T01:43:53.051Z,14.06
2023-05-04T01:44:53.098Z,13.87
2023-05-04T01:45:53.182Z,13.95
2023-05-04T01:46:53.228Z,13.94
2023-05-04T01:47:53.655Z,13.96
2023-05-04T01:48:53.336Z,14.23
2023-05-04T01:49:53.389Z,13.54
2023-05-04T01:50:53.512Z,13.78
2023-05-04T01:51:53.491Z,13.90
2023-05-04T01:52:53.545Z,13.57
2023-05-04T01:53:53.580Z,13.54
2023-05-04T01:54:53.632Z,13.58
2023-05-04T01:55:53.705Z,13.72
2023-05-04T01:56:53.731Z,13.56
2023-05-04T01:57:53.796Z,13.23
2023-05-04T01:58:53.833Z,13.40
2023-05-04T01:59:53.881Z,13.48
2023-05-04T02:00:53.924Z,13.44
2023-05-04T02:01:53.999Z,13.11
2023-05-04T02:02:54.115Z,13.11
2023-05-04T02:03:54.157Z,13.03
2023-05-04T02:04:54.106Z,12.79
2023-05-04T02:05:54.158Z,12.94
2023-05-04T02:06:54.232Z,12.94
2023-05-04T02:07:54.256Z,12.86
2023-05-04T02:08:54.305Z,12.98
2023-05-04T02:09:55.122Z,12.81
2023-05-04T02:10:54.401Z,12.70
2023-05-04T02:11:54.457Z,12.76
2023-05-04T02:12:54.511Z,12.82
2023-05-04T02:13:54.550Z,12.55
2023-05-04T02:14:54.600Z,12.70
2023-05-04T02:15:54.675Z,12.43
2023-05-04T02:16:54.711Z,12.39
2023-05-04T02:17:54.771Z,12.74
2023-05-04T02:18:54.837Z,12.32
2023-05-04T02:19:54.834Z,12.62
2023-05-04T02:20:54.852Z,12.62
2023-05-04T02:21:54.909Z,12.40
2023-05-04T02:22:54.969Z,12.40
2023-05-04T02:23:55.014Z,12.29
2023-05-04T02:24:55.054Z,12.43
2023-05-04T02:25:55.110Z,11.90
2023-05-04T02:26:55.148Z,12.06
2023-05-04T02:27:55.207Z,12.35
2023-05-04T02:28:55.341Z,12.13
2023-05-04T02:29:55.301Z,12.23
2023-05-04T02:30:55.369Z,12.00
2023-05-04T02:31:55.483Z,11.81
2023-05-04T02:32:55.498Z,11.89
2023-05-04T02:33:55.501Z,11.92
2023-05-04T02:34:55.560Z,12.06
2023-05-04T02:35:55.666Z,12.15
2023-05-04T02:36:55.672Z,11.82
2023-05-04T02:37:55.777Z,11.96
2023-05-04T02:38:55.756Z,11.94
2023-05-04T02:39:55.794Z,11.86
2023-05-04T02:40:55.836Z,11.88
2023-05-04T02:41:55.879Z,11.99
2023-05-04T02:42:55.954Z,11.79
2023-05-04T02:43:55.988Z,11.69
2023-05-04T02:44:56.061Z,11.51
2023-05-04T02:45:56.136Z,11.84
2023-05-04T02:46:56.138Z,11.64
2023-05-04T02:47:56.220Z,11.83
2023-05-04T02:48:56.258Z,11.55
2023-05-04T02:49:56.276Z,11.58
2023-05-04T02:50:56.331Z,11.55
2023-05-04T02:51:56.383Z,11.40
2023-05-04T02:52:56.425Z,11.44
2023-05-04T02:53:56.545Z,11.59
2023-05-04T02:54:56.538Z,11.49
2023-05-04T02:55:57.139Z,11.05
2023-05-04T02:56:56.602Z,11.25
2023-05-04T02:57:56.641Z,11.22
2023-05-04T02:58:56.750Z,11.35
2023-05-04T02:59:56.806Z,11.52
2023-05-04T03:00:56.828Z,11.41
2023-05-04T03:01:56.883Z,11.29
2023-05-04T03:02:56.914Z,11.28
2023-05-04T03:03:56.949Z,11.10
2023-05-04T03:04:56.985Z,11.31
2023-05-04T03:05:57.031Z,11.24
2023-05-04T03:06:57.088Z,11.17
2023-05-04T03:07:57.138Z,11.16
2023-05-04T03:08:57.184Z,11.06
2023-05-04T03:09:57.248Z,10.93
2023-05-04T03:10:57.297Z,10.95
2023-05-04T03:11:57.357Z,10.90
2023-05-04T03:12:57.477Z,11.08
2023-05-04T03:13:57.466Z,11.01
2023-05-04T03:14:57.525Z,10.83
2023-05-04T03:15:57.623Z,10.64
2023-05-04T03:16:57.666Z,10.86
2023-05-04T03:17:57.781Z,10.77
2023-05-04T03:18:57.736Z,10.87
2023-05-04T03:19:57.876Z,10.74
2023-05-04T03:20:57.830Z,10.69
2023-05-04T03:21:57.898Z,10.44
2023-05-04T03:22:57.926Z,10.57
2023-05-04T03:23:57.961Z,10.80
2023-05-04T03:24:58.016Z,10.57
2023-05-04T03:25:58.050Z,10.50
2023-05-04T03:26:58.174Z,10.49
2023-05-04T03:27:58.151Z,10.70
2023-05-04T03:28:58.184Z,10.35
2023-05-04T03:29:59.181Z,10.48
2023-05-04T03:30:58.328Z,10.34
2023-05-04T03:31:58.400Z,10.54
2023-05-04T03:32:58.394Z,10.30
2023-05-04T03:33:58.427Z,10.25
2023-05-04T03:34:58.544Z,10.10
2023-05-04T03:35:58.515Z,10.36
2023-05-04T03:36:58.572Z,10.21
2023-05-04T03:37:58.605Z,10.10
2023-05-04T03:38:58.656Z,9.95
2023-05-04T03:39:58.719Z,9.78
2023-05-04T03:40:58.753Z,9.74
2023-05-04T03:41:58.819Z,9.95
2023-05-04T03:42:58.856Z,9.99
2023-05-04T03:43:58.926Z,9.95
2023-05-04T03:44:58.967Z,9.67
2023-05-04T03:45:59.075Z,9.60
2023-05-04T03:46:59.064Z,9.74
2023-05-04T03:47:59.132Z,9.84
2023-05-04T03:48:59.140Z,9.76
2023-05-04T03:49:59.209Z,9.59
2023-05-04T03:50:59.275Z,9.76
2023-05-04T03:51:59.334Z,9.29
2023-05-04T03:52:59.392Z,9.64
2023-05-04T03:53:59.450Z,9.59
2023-05-04T03:54:59.488Z,9.58
2023-05-04T03:55:59.549Z,9.58
2023-05-04T03:56:59.602Z,9.44
2023-05-04T03:57:59.659Z,9.52
2023-05-04T03:58:59.720Z,9.44
2023-05-04T03:59:59.755Z,9.25
2023-05-04T04:00:59.822Z,9.45
2023-05-04T04:01:59.889Z,9.28
2023-05-04T04:03:00.005Z,9.35
2023-05-04T04:04:00.058Z,9.52
2023-05-04T04:05:00.029Z,9.45
2023-05-04T04:06:00.094Z,9.23
2023-05-04T04:07:00.133Z,9.44
2023-05-04T04:08:00.230Z,9.24
2023-05-04T04:09:00.228Z,9.41
2023-05-04T04:10:00.266Z,9.32
2023-05-04T04:11:00.345Z,9.15
2023-05-04T04:12:00.387Z,9.12
2023-05-04T04:13:00.487Z,9.33
2023-05-04T04:14:00.492Z,8.90
2023-05-04T04:15:00.562Z,9.16
2023-05-04T04:16:00.616Z,8.96
2023-05-04T04:17:00.652Z,9.13
2023-05-04T04:18:00.803Z,9.23
2023-05-04T04:19:00.725Z,8.89
2023-05-04T04:20:00.765Z,9.13
2023-05-04T04:21:01.675Z,9.11
2023-05-04T04:22:00.870Z,9.01
2023-05-04T04:23:00.923Z,9.09
2023-05-04T04:24:00.972Z,8.91
2023-05-04T04:25:00.995Z,8.98
2023-05-04T04:26:01.180Z,8.90
2023-05-04T04:27:01.125Z,8.95
2023-05-04T04:28:01.183Z,8.94
2023-05-04T04:29:01.223Z,8.70
2023-05-04T04:30:01.294Z,8.85
2023-05-04T04:31:01.439Z,8.87
2023-05-04T04:32:01.360Z,8.89
2023-05-04T04:33:01.458Z,8.94
2023-05-04T04:34:01.437Z,8.83
2023-05-04T04:35:01.472Z,8.75
2023-05-04T04:36:01.508Z,8.81
2023-05-04T04:37:01.557Z,8.77
2023-05-04T04:38:03.629Z,8.78
2023-05-04T04:39:01.668Z,8.90
2023-05-04T04:40:01.719Z,8.69
2023-05-04T04:41:01.754Z,8.76
2023-05-04T04:42:01.818Z,8.69
2023-05-04T04:43:01.871Z,8.68
2023-05-04T04:44:01.917Z,8.59
2023-05-04T04:45:01.957Z,8.55
2023-05-04T04:46:02.026Z,8.67
2023-05-04T04:47:02.141Z,8.47
2023-05-04T04:48:02.196Z,8.60
2023-05-04T04:49:02.188Z,8.31
2023-05-04T04:50:02.444Z,8.65
2023-05-04T04:51:02.283Z,8.50
2023-05-04T04:52:02.333Z,8.48
2023-05-04T04:53:02.411Z,8.32
2023-05-04T04:54:02.471Z,8.23
2023-05-04T04:55:02.520Z,8.37
2023-05-04T04:56:02.568Z,8.24
2023-05-04T04:57:02.591Z,8.33
2023-05-04T04:58:02.638Z,8.52
2023-05-04T04:59:02.666Z,8.34
2023-05-04T05:00:02.866Z,8.47
2023-05-04T05:01:02.855Z,8.26
2023-05-04T05:02:02.798Z,8.35
2023-05-04T05:03:02.897Z,8.25
2023-05-04T05:04:02.872Z,8.27
2023-05-04T05:05:02.941Z,7.94
2023-05-04T05:06:02.947Z,8.10
2023-05-04T05:07:03.037Z,8.06
2023-05-04T05:08:03.036Z,8.19
2023-05-04T05:09:03.080Z,7.82
2023-05-04T05:10:03.291Z,8.21
2023-05-04T05:11:03.157Z,8.03
2023-05-04T05:12:03.201Z,7.95
2023-05-04T05:13:03.301Z,7.91
2023-05-04T05:14:03.276Z,8.02
2023-05-04T05:15:03.325Z,8.03
2023-05-04T05:16:03.368Z,7.98
2023-05-04T05:17:03.550Z,7.70
2023-05-04T05:18:03.528Z,7.93
2023-05-04T05:19:03.509Z,7.92
2023-05-04T05:20:03.794Z,7.84
2023-05-04T05:21:03.602Z,7.76
2023-05-04T05:22:03.644Z,7.76
2023-05-04T05:23:04.200Z,7.75
2023-05-04T05:24:03.734Z,7.86
2023-05-04T05:25:03.754Z,7.74
2023-05-04T05:26:03.802Z,7.74
2023-05-04T05:27:03.859Z,7.81
2023-05-04T05:28:03.910Z,7.95
2023-05-04T05:29:03.962Z,8.04
2023-05-04T05:30:04.208Z,8.00
2023-05-04T05:31:04.140Z,8.39
2023-05-04T05:32:04.139Z,8.74
2023-05-04T05:33:04.267Z,9.22
2023-05-04T05:34:04.254Z,10.16
2023-05-04T05:35:04.284Z,10.70
2023-05-04T05:36:04.395Z,12.06
2023-05-04T05:37:04.374Z,13.02
2023-05-04T05:38:04.400Z,14.28
2023-05-04T05:39:04.428Z,15.43
2023-05-04T05:40:04.627Z,16.66
2023-05-04T05:41:04.477Z,18.37
2023-05-04T05:42:04.501Z,19.96
2023-05-04T05:43:05.215Z,21.88
2023-05-04T05:44:05.239Z,25.13
2023-05-04T05:45:04.567Z,26.69
2023-05-04T05:46:04.575Z,27.85
2023-05-04T05:47:04.546Z,30.73
2023-05-04T05:48:04.650Z,32.58
2023-05-04T05:49:04.568Z,34.11
2023-05-04T05:50:04.879Z,37.75
2023-05-04T05:51:04.579Z,40.46
2023-05-04T05:52:04.590Z,43.37
2023-05-04T05:53:04.600Z,46.89
2023-05-04T05:54:04.694Z,51.24
2023-05-04T05:55:04.605Z,54.59
2023-05-04T05:56:04.596Z,57.20
2023-05-04T05:57:04.585Z,62.64
2023-05-04T05:58:04.648Z,67.23
2023-05-04T05:59:04.581Z,70.68
2023-05-04T06:00:04.798Z,74.45
2023-05-04T06:01:05.138Z,78.86
2023-05-04T06:02:04.558Z,83.21
2023-05-04T06:03:04.637Z,90.74
2023-05-04T06:04:04.773Z,93.12
2023-05-04T06:05:05.377Z,98.48
2023-05-04T06:06:04.572Z,104.16
2023-05-04T06:07:04.566Z,109.31
2023-05-04T06:08:04.558Z,113.11
2023-05-04T06:09:04.592Z,122.25
2023-05-04T06:10:04.892Z,125.26
2023-05-04T06:11:04.604Z,134.15
2023-05-04T06:12:04.597Z,141.06
2023-05-04T06:13:04.723Z,149.67
2023-05-04T06:14:05.240Z,156.66
2023-05-04T06:15:04.707Z,165.07
2023-05-04T06:16:04.706Z,171.91
2023-05-04T06:17:04.726Z,178.33
2023-05-04T06:18:04.817Z,189.66
2023-05-04T06:19:04.758Z,192.14
2023-05-04T06:20:06.098Z,205.16
2023-05-04T06:21:05.229Z,219.00
2023-05-04T06:22:04.868Z,226.10
2023-05-04T06:23:04.895Z,224.70
2023-05-04T06:24:04.932Z,230.27
2023-05-04T06:25:07.687Z,245.31
2023-05-04T06:26:04.932Z,268.40
2023-05-04T06:27:04.903Z,285.32
2023-05-04T06:28:04.881Z,286.34
2023-05-04T06:29:04.872Z,290.26
2023-05-04T06:30:05.029Z,281.95
2023-05-04T06:31:04.846Z,274.65
2023-05-04T06:32:05.010Z,267.52
2023-05-04T06:33:04.810Z,251.05
2023-05-04T06:34:04.827Z,208.44
2023-05-04T06:35:04.746Z,177.48
2023-05-04T06:36:04.725Z,181.08
2023-05-04T06:37:04.709Z,151.52
2023-05-04T06:38:04.694Z,153.87
2023-05-04T06:39:04.753Z,132.70
2023-05-04T06:40:04.653Z,126.67
2023-05-04T06:41:04.667Z,125.20
2023-05-04T06:42:04.638Z,113.06
2023-05-04T06:43:04.682Z,91.10
2023-05-04T06:44:04.690Z,82.24
2023-05-04T06:45:04.586Z,80.49
2023-05-04T06:46:04.698Z,78.13
2023-05-04T06:47:04.572Z,71.73
2023-05-04T06:48:04.684Z,70.56
2023-05-04T06:49:04.544Z,61.46
2023-05-04T06:50:04.701Z,54.61
2023-05-04T06:51:04.501Z,53.44
2023-05-04T06:52:04.500Z,56.60
2023-05-04T06:53:04.487Z,54.27
2023-05-04T06:54:04.455Z,54.18
2023-05-04T06:55:04.519Z,53.48
2023-05-04T06:56:05.231Z,51.93
2023-05-04T06:57:04.451Z,47.82
2023-05-04T06:58:04.425Z,47.51
2023-05-04T06:59:04.415Z,45.91
2023-05-04T07:00:04.587Z,44.16
2023-05-04T07:01:04.425Z,39.01
2023-05-04T07:02:04.384Z,34.86
2023-05-04T07:03:04.378Z,32.29
2023-05-04T07:04:04.450Z,33.52
2023-05-04T07:05:04.329Z,31.16
2023-05-04T07:06:04.316Z,30.74
2023-05-04T07:07:05.239Z,30.42
2023-05-04T07:08:04.351Z,28.84
2023-05-04T07:09:04.269Z,26.69
2023-05-04T07:10:04.548Z,26.26
2023-05-04T07:11:04.246Z,25.95
2023-05-04T07:12:04.240Z,25.29
2023-05-04T07:13:04.244Z,24.52
2023-05-04T07:14:04.373Z,23.72
2023-05-04T07:15:04.187Z,22.96
2023-05-04T07:16:04.240Z,20.84
2023-05-04T07:17:04.165Z,17.82
2023-05-04T07:18:04.190Z,16.15
2023-05-04T07:19:04.134Z,14.98
2023-05-04T07:20:04.488Z,13.95
2023-05-04T07:21:21.774Z,13.32
2023-05-04T07:22:05.101Z,13.34
2023-05-04T07:23:04.075Z,13.36
2023-05-04T07:24:04.114Z,13.49
2023-05-04T07:25:04.744Z,13.78
2023-05-04T07:26:04.055Z,13.94
2023-05-04T07:27:04.052Z,13.87
2023-05-04T07:28:04.046Z,13.87
2023-05-04T07:29:04.027Z,13.16
2023-05-04T07:30:05.310Z,13.19
2023-05-04T07:31:04.014Z,13.32
2023-05-04T07:32:04.056Z,13.43
2023-05-04T07:33:04.701Z,13.47
2023-05-04T07:34:03.978Z,13.31
2023-05-04T07:35:04.739Z,13.52
2023-05-04T07:36:03.928Z,13.25
2023-05-04T07:37:03.909Z,13.10
2023-05-04T07:38:03.903Z,12.54
2023-05-04T07:39:03.930Z,12.64
2023-05-04T07:40:04.133Z,12.66
2023-05-04T07:41:03.842Z,12.65
2023-05-04T07:42:03.817Z,12.59
2023-05-04T07:43:03.799Z,12.52
2023-05-04T07:44:03.769Z,12.43
2023-05-04T07:45:03.753Z,12.14
2023-05-04T07:46:04.031Z,12.01
2023-05-04T07:47:03.800Z,12.25
2023-05-04T07:48:03.875Z,11.61
2023-05-04T07:49:03.873Z,11.72
2023-05-04T07:50:04.282Z,11.53
2023-05-04T07:51:03.968Z,11.31
2023-05-04T07:52:04.023Z,10.85
2023-05-04T07:53:04.063Z,10.94
2023-05-04T07:54:04.112Z,10.46
2023-05-04T07:55:04.242Z,9.96
2023-05-04T07:56:04.265Z,10.01
2023-05-04T07:57:04.251Z,10.00
2023-05-04T07:58:05.271Z,10.13
2023-05-04T07:59:04.339Z,10.25
2023-05-04T08:00:04.524Z,9.96
2023-05-04T08:01:04.451Z,10.10
2023-05-04T08:02:04.596Z,10.06
2023-05-04T08:03:04.595Z,10.02
2023-05-04T08:04:04.607Z,9.92
2023-05-04T08:05:04.676Z,10.20
2023-05-04T08:06:04.739Z,10.09
2023-05-04T08:07:04.757Z,9.93
2023-05-04T08:08:04.824Z,9.68
2023-05-04T08:09:04.853Z,9.57
2023-05-04T08:10:05.103Z,9.68
2023-05-04T08:11:15.967Z,9.59
2023-05-04T08:12:05.924Z,9.62
2023-05-04T08:13:04.948Z,9.66
2023-05-04T08:14:04.879Z,9.66
2023-05-04T08:15:05.078Z,9.77
2023-05-04T08:16:04.838Z,9.01
2023-05-04T08:17:04.910Z,8.84
2023-05-04T08:18:04.838Z,8.17
2023-05-04T08:19:04.810Z,8.01
2023-05-04T08:20:04.771Z,7.78
2023-05-04T08:21:05.063Z,7.52
2023-05-04T08:22:04.832Z,6.65
2023-05-04T08:23:04.862Z,3.25
2023-05-04T08:24:04.867Z,3.06
2023-05-04T08:25:05.040Z,2.62
2023-05-04T08:26:04.853Z,2.33
2023-05-04T08:27:08.778Z,2.31
2023-05-04T08:28:05.810Z,2.32
2023-05-04T08:29:04.793Z,2.36
2023-05-04T08:30:04.770Z,2.41
2023-05-04T08:31:04.751Z,2.58
2023-05-04T08:32:04.840Z,2.84
2023-05-04T08:33:04.801Z,3.10
2023-05-04T08:34:04.709Z,3.18
2023-05-04T08:35:04.813Z,3.35
2023-05-04T08:36:04.695Z,3.47
2023-05-04T08:37:04.768Z,3.65
2023-05-04T08:38:04.814Z,3.84
2023-05-04T08:39:05.699Z,3.93
2023-05-04T08:40:04.896Z,4.09
2023-05-04T08:41:04.954Z,4.28
2023-05-04T08:42:05.004Z,4.27
2023-05-04T08:43:05.065Z,4.50
2023-05-04T08:44:05.126Z,4.72
2023-05-04T08:45:05.481Z,4.89
2023-05-04T08:46:05.333Z,4.83
2023-05-04T08:47:05.249Z,5.14
2023-05-04T08:48:05.338Z,5.17
2023-05-04T08:49:05.363Z,5.15
2023-05-04T08:50:05.385Z,5.21
2023-05-04T08:51:05.434Z,5.28
2023-05-04T08:52:05.458Z,5.39
2023-05-04T08:53:05.492Z,5.75
2023-05-04T08:54:05.510Z,5.80
2023-05-04T08:55:05.718Z,5.93
2023-05-04T08:56:05.564Z,5.94
2023-05-04T08:57:05.599Z,6.21
2023-05-04T08:58:05.617Z,6.42
2023-05-04T08:59:05.647Z,7.03
2023-05-04T09:00:05.657Z,6.60
2023-05-04T09:01:05.723Z,7.14
2023-05-04T09:02:05.920Z,7.49
2023-05-04T09:03:05.747Z,7.51
2023-05-04T09:04:06.363Z,7.81
2023-05-04T09:05:05.888Z,8.21
2023-05-04T09:06:05.896Z,8.88
2023-05-04T09:07:05.704Z,9.43
2023-05-04T09:08:05.706Z,9.68
2023-05-04T09:09:05.689Z,9.98
2023-05-04T09:10:05.672Z,10.23
2023-05-04T09:11:05.685Z,10.60
2023-05-04T09:12:05.665Z,10.44
2023-05-04T09:13:05.739Z,10.94
2023-05-04T09:14:05.653Z,11.37
2023-05-04T09:15:06.141Z,10.13
2023-05-04T09:16:05.668Z,8.46
2023-05-04T09:17:05.744Z,7.86
2023-05-04T09:18:05.712Z,6.92
2023-05-04T09:19:06.296Z,6.63
2023-05-04T09:20:05.761Z,6.24
2023-05-04T09:21:05.814Z,6.11
2023-05-04T09:22:05.794Z,6.25
2023-05-04T09:23:05.811Z,6.15
2023-05-04T09:24:06.299Z,6.56
2023-05-04T09:25:06.032Z,7.06
2023-05-04T09:26:05.908Z,7.26
2023-05-04T09:27:05.931Z,7.27
2023-05-04T09:28:05.944Z,7.75
2023-05-04T09:29:05.956Z,8.11
2023-05-04T09:30:06.008Z,8.35
2023-05-04T09:31:05.996Z,9.08
2023-05-04T09:32:06.024Z,9.31
2023-05-04T09:33:06.034Z,9.76
2023-05-04T09:34:05.995Z,10.09
2023-05-04T09:35:06.185Z,10.39
2023-05-04T09:36:06.007Z,10.99
2023-05-04T09:37:06.013Z,11.22
2023-05-04T09:38:06.760Z,11.52
2023-05-04T09:39:06.039Z,11.85
2023-05-04T09:40:06.045Z,12.04
2023-05-04T09:41:06.044Z,11.86
2023-05-04T09:42:06.052Z,11.50
2023-05-04T09:43:06.046Z,11.73
2023-05-04T09:44:06.054Z,11.69
2023-05-04T09:45:06.383Z,11.59
2023-05-04T09:46:06.054Z,11.89
2023-05-04T09:47:06.045Z,12.04
2023-05-04T09:48:06.072Z,12.36
2023-05-04T09:49:06.028Z,12.74
2023-05-04T09:50:06.052Z,13.26
2023-05-04T09:51:06.022Z,13.56
2023-05-04T09:52:06.030Z,13.37
2023-05-04T09:53:06.018Z,13.53
2023-05-04T09:54:05.995Z,13.06
2023-05-04T09:55:06.275Z,12.61
2023-05-04T09:56:08.133Z,12.86
2023-05-04T09:57:06.314Z,12.88
2023-05-04T09:58:05.952Z,13.11
2023-05-04T09:59:05.939Z,13.14
2023-05-04T10:00:05.912Z,13.22
2023-05-04T10:01:05.890Z,13.17
2023-05-04T10:02:18.095Z,13.22
2023-05-04T10:03:06.898Z,13.14
2023-05-04T10:04:05.819Z,13.18
2023-05-04T10:05:06.100Z,13.14
2023-05-04T10:06:05.838Z,12.19
2023-05-04T10:07:06.736Z,12.25
2023-05-04T10:08:05.777Z,11.86
2023-05-04T10:09:05.761Z,11.50
2023-05-04T10:10:05.702Z,11.38
2023-05-04T10:11:05.701Z,10.90
2023-05-04T10:12:05.674Z,9.80
2023-05-04T10:13:05.716Z,8.93
2023-05-04T10:14:05.698Z,9.48
2023-05-04T10:15:05.712Z,9.29
2023-05-04T10:16:05.603Z,9.33
2023-05-04T10:17:05.549Z,9.39
2023-05-04T10:18:05.525Z,9.09
2023-05-04T10:19:05.499Z,8.56
2023-05-04T10:20:05.496Z,8.24
2023-05-04T10:21:05.463Z,8.14
2023-05-04T10:22:06.286Z,8.35
2023-05-04T10:23:05.465Z,8.71
2023-05-04T10:24:05.421Z,8.47
2023-05-04T10:25:05.555Z,8.68
2023-05-04T10:26:05.319Z,8.97
2023-05-04T10:27:05.303Z,8.98
2023-05-04T10:28:05.269Z,9.09
2023-05-04T10:29:05.281Z,9.58
2023-05-04T10:30:05.309Z,9.51
2023-05-04T10:31:05.317Z,9.87
2023-05-04T10:32:05.500Z,10.01
2023-05-04T10:33:05.407Z,10.09
2023-05-04T10:34:05.362Z,10.53
2023-05-04T10:35:05.632Z,10.53
2023-05-04T10:36:05.404Z,10.88
2023-05-04T10:37:05.429Z,10.80
2023-05-04T10:38:05.455Z,11.07
2023-05-04T10:39:05.479Z,11.04
2023-05-04T10:40:07.679Z,11.27
2023-05-04T10:41:05.560Z,11.32
2023-05-04T10:42:05.609Z,11.39
2023-05-04T10:43:05.620Z,11.40
2023-05-04T10:44:05.649Z,11.61
2023-05-04T10:45:05.877Z,11.78
2023-05-04T10:46:05.785Z,12.06
2023-05-04T10:47:05.808Z,11.79
2023-05-04T10:48:05.783Z,12.07
2023-05-04T10:49:05.812Z,12.09
2023-05-04T10:50:05.794Z,12.04
2023-05-04T10:51:05.852Z,12.37
2023-05-04T10:52:05.877Z,12.26
2023-05-04T10:53:05.886Z,12.20
2023-05-04T10:54:05.908Z,12.45
2023-05-04T10:55:06.261Z,12.41
2023-05-04T10:56:05.961Z,12.32
2023-05-04T10:57:05.980Z,12.56
2023-05-04T10:58:06.033Z,12.45
2023-05-04T10:59:06.156Z,12.65
2023-05-04T11:00:06.093Z,12.12
2023-05-04T11:01:06.154Z,12.62
2023-05-04T11:02:06.184Z,12.38
2023-05-04T11:03:06.311Z,12.57
2023-05-04T11:04:06.245Z,12.48
2023-05-04T11:05:06.543Z,12.60
2023-05-04T11:06:06.305Z,12.56
2023-05-04T11:07:06.510Z,12.60
2023-05-04T11:08:06.414Z,12.30
2023-05-04T11:09:06.457Z,12.56
2023-05-04T11:10:06.501Z,12.98
2023-05-04T11:11:06.536Z,13.05
2023-05-04T11:12:06.636Z,13.16
2023-05-04T11:13:07.731Z,13.31
2023-05-04T11:14:06.662Z,13.03
2023-05-04T11:15:06.968Z,13.38
2023-05-04T11:16:06.769Z,13.44
2023-05-04T11:17:12.708Z,13.33
2023-05-04T11:18:07.800Z,13.36
2023-05-04T11:19:06.733Z,13.37
2023-05-04T11:20:06.717Z,13.33
2023-05-04T11:21:06.698Z,13.51
2023-05-04T11:22:07.680Z,13.36
2023-05-04T11:23:06.659Z,13.38
2023-05-04T11:24:06.640Z,13.53
2023-05-04T11:25:06.746Z,13.73
2023-05-04T11:26:06.636Z,13.96
2023-05-04T11:27:06.656Z,13.61
2023-05-04T11:28:06.685Z,13.50
2023-05-04T11:29:06.702Z,13.58
2023-05-04T11:30:06.817Z,13.16
2023-05-04T11:31:06.814Z,13.22
2023-05-04T11:32:06.793Z,12.86
2023-05-04T11:33:06.864Z,13.51
2023-05-04T11:34:06.842Z,13.10
2023-05-04T11:35:07.069Z,13.19
2023-05-04T11:36:06.889Z,13.00
2023-05-04T11:37:06.922Z,13.22
2023-05-04T11:38:07.013Z,12.85
2023-05-04T11:39:06.977Z,12.99
2023-05-04T11:40:07.005Z,12.97
2023-05-04T11:41:07.034Z,13.08
2023-05-04T11:42:07.864Z,13.07
2023-05-04T11:43:07.137Z,12.87
2023-05-04T11:44:07.144Z,12.88
2023-05-04T11:45:07.429Z,12.97
2023-05-04T11:46:07.268Z,13.05
2023-05-04T11:47:07.247Z,13.18
2023-05-04T11:48:07.331Z,13.51
2023-05-04T11:49:07.396Z,13.50
2023-05-04T11:50:07.343Z,13.61
2023-05-04T11:51:07.455Z,13.55
2023-05-04T11:52:07.409Z,14.13
2023-05-04T11:53:07.431Z,14.00
2023-05-04T11:54:07.454Z,14.05
2023-05-04T11:55:07.763Z,15.11
2023-05-04T11:56:07.503Z,15.22
2023-05-04T11:57:07.518Z,15.76
2023-05-04T11:58:07.552Z,16.08
2023-05-04T11:59:07.563Z,16.73
2023-05-04T12:00:08.351Z,16.96
2023-05-04T12:01:07.600Z,17.22
2023-05-04T12:02:07.603Z,18.10
2023-05-04T12:03:07.763Z,18.26
2023-05-04T12:04:07.806Z,19.12
2023-05-04T12:05:07.836Z,19.54
2023-05-04T12:06:07.675Z,19.87
2023-05-04T12:07:07.697Z,20.45
2023-05-04T12:08:07.716Z,21.16
2023-05-04T12:09:07.726Z,21.28
2023-05-04T12:10:07.728Z,21.87
2023-05-04T12:11:07.743Z,22.17
2023-05-04T12:12:07.794Z,23.17
2023-05-04T12:13:08.424Z,23.50
2023-05-04T12:14:07.864Z,23.56
2023-05-04T12:15:08.053Z,23.46
2023-05-04T12:16:07.826Z,24.15
2023-05-04T12:17:07.813Z,25.49
2023-05-04T12:18:07.864Z,25.54
2023-05-04T12:19:07.844Z,25.95
2023-05-04T12:20:07.922Z,25.38
2023-05-04T12:21:07.879Z,25.83
2023-05-04T12:22:07.883Z,26.26
2023-05-04T12:23:07.903Z,26.55
2023-05-04T12:24:07.923Z,25.54
2023-05-04T12:25:08.244Z,26.81
2023-05-04T12:26:07.943Z,24.41
2023-05-04T12:27:07.955Z,21.78
2023-05-04T12:28:08.862Z,19.66
2023-05-04T12:29:08.006Z,19.24
2023-05-04T12:30:08.014Z,19.31
2023-05-04T12:31:08.038Z,19.03
2023-05-04T12:32:08.167Z,18.22
2023-05-04T12:33:08.073Z,16.55
2023-05-04T12:34:08.120Z,15.13
2023-05-04T12:35:08.262Z,13.40
2023-05-04T12:36:08.141Z,11.45
2023-05-04T12:37:08.162Z,8.16
2023-05-04T12:38:08.185Z,7.42
2023-05-04T12:39:08.211Z,6.10
2023-05-04T12:40:17.271Z,5.80
2023-05-04T12:41:09.207Z,5.81
2023-05-04T12:42:08.177Z,5.88
2023-05-04T12:43:08.158Z,6.00
2023-05-04T12:44:08.154Z,6.18
2023-05-04T12:45:08.227Z,6.61
2023-05-04T12:46:08.155Z,6.85
2023-05-04T12:47:08.068Z,6.81
2023-05-04T12:48:08.173Z,6.98
2023-05-04T12:49:08.107Z,6.94
2023-05-04T12:50:08.035Z,7.30
2023-05-04T12:51:08.028Z,7.21
2023-05-04T12:52:08.038Z,7.38
2023-05-04T12:53:08.073Z,7.32
2023-05-04T12:54:08.109Z,7.33
2023-05-04T12:55:08.304Z,7.64
2023-05-04T12:56:08.182Z,7.73
2023-05-04T12:57:08.235Z,7.89
2023-05-04T12:58:08.306Z,7.97
2023-05-04T12:59:08.309Z,7.97
2023-05-04T13:00:08.353Z,8.00